sensor_id;sensor_type;location;lat;lon;timestamp;temperature;humidity
21815;DHT22;11069;48.988;8.450;2022-11-20T00:01:49;5.20;99.90
21815;DHT22;11069;48.988;8.450;2022-11-20T00:04:15;5.10;99.90
21815;DHT22;11069;48.988;8.450;2022-11-20T00:06:40;5.20;99.90
21815;DHT22;11069;48.988;8.450;2022-11-20T00:09:06;5.10;99.90
21815;DHT22;11069;48.988;8.450;2022-11-20T00:11:32;5.20;99.90
21815;DHT22;11069;48.988;8.450;2022-11-20T00:14:00;5.20;99.90
21815;DHT22;11069;48.988;8.450;2022-11-20T00:16:28;5.20;99.90
21815;DHT22;11069;48.988;8.450;2022-11-20T00:18:55;5.20;99.90
21815;DHT22;11069;48.988;8.450;2022-11-20T00:21:22;5.20;99.90
21815;DHT22;11069;48.988;8.450;2022-11-20T00:23:49;5.10;99.90
21815;DHT22;11069;48.988;8.450;2022-11-20T00:26:17;5.10;99.90
21815;DHT22;11069;48.988;8.450;2022-11-20T00:28:44;5.10;99.90
21815;DHT22;11069;48.988;8.450;2022-11-20T00:31:15;5.30;99.90
21815;DHT22;11069;48.988;8.450;2022-11-20T00:33:42;5.30;99.90
21815;DHT22;11069;48.988;8.450;2022-11-20T00:36:10;5.30;99.90
21815;DHT22;11069;48.988;8.450;2022-11-20T00:38:36;5.20;99.90
21815;DHT22;11069;48.988;8.450;2022-11-20T00:41:05;5.30;99.90
21815;DHT22;11069;48.988;8.450;2022-11-20T00:43:30;5.30;99.90
21815;DHT22;11069;48.988;8.450;2022-11-20T00:45:57;5.20;99.90
21815;DHT22;11069;48.988;8.450;2022-11-20T00:48:31;5.30;99.90
21815;DHT22;11069;48.988;8.450;2022-11-20T00:50:57;5.30;99.90
21815;DHT22;11069;48.988;8.450;2022-11-20T00:53:23;5.40;99.90
21815;DHT22;11069;48.988;8.450;2022-11-20T00:55:55;5.30;99.90
21815;DHT22;11069;48.988;8.450;2022-11-20T00:58:21;5.20;99.90
21815;DHT22;11069;48.988;8.450;2022-11-20T01:00:47;5.40;99.90
21815;DHT22;11069;48.988;8.450;2022-11-20T01:03:15;5.30;99.90
21815;DHT22;11069;48.988;8.450;2022-11-20T01:05:41;5.20;99.90
21815;DHT22;11069;48.988;8.450;2022-11-20T01:08:07;5.40;99.90
21815;DHT22;11069;48.988;8.450;2022-11-20T01:10:32;5.30;99.90
21815;DHT22;11069;48.988;8.450;2022-11-20T01:12:58;5.20;99.90
21815;DHT22;11069;48.988;8.450;2022-11-20T01:15:42;5.30;99.90
21815;DHT22;11069;48.988;8.450;2022-11-20T01:18:08;5.40;99.90
21815;DHT22;11069;48.988;8.450;2022-11-20T01:20:37;5.30;99.90
21815;DHT22;11069;48.988;8.450;2022-11-20T01:23:03;5.50;99.90
21815;DHT22;11069;48.988;8.450;2022-11-20T01:25:29;5.50;99.90
21815;DHT22;11069;48.988;8.450;2022-11-20T01:27:54;5.40;99.90
21815;DHT22;11069;48.988;8.450;2022-11-20T01:30:20;5.40;99.90
21815;DHT22;11069;48.988;8.450;2022-11-20T01:32:46;5.40;99.90
21815;DHT22;11069;48.988;8.450;2022-11-20T01:35:11;5.40;99.90
21815;DHT22;11069;48.988;8.450;2022-11-20T01:37:37;5.50;99.90
21815;DHT22;11069;48.988;8.450;2022-11-20T01:40:03;5.50;99.90
21815;DHT22;11069;48.988;8.450;2022-11-20T01:42:28;5.50;99.90
21815;DHT22;11069;48.988;8.450;2022-11-20T01:48:13;5.60;99.90
21815;DHT22;11069;48.988;8.450;2022-11-20T01:50:40;5.60;99.90
21815;DHT22;11069;48.988;8.450;2022-11-20T01:53:09;5.50;99.90
21815;DHT22;11069;48.988;8.450;2022-11-20T01:55:45;5.40;99.90
21815;DHT22;11069;48.988;8.450;2022-11-20T01:58:13;5.40;99.90
21815;DHT22;11069;48.988;8.450;2022-11-20T02:00:40;5.40;99.90
21815;DHT22;11069;48.988;8.450;2022-11-20T02:03:09;5.40;99.90
21815;DHT22;11069;48.988;8.450;2022-11-20T02:08:28;5.50;99.90
21815;DHT22;11069;48.988;8.450;2022-11-20T02:10:54;5.50;99.90
21815;DHT22;11069;48.988;8.450;2022-11-20T02:13:19;5.50;99.90
21815;DHT22;11069;48.988;8.450;2022-11-20T02:16:04;5.60;99.90
21815;DHT22;11069;48.988;8.450;2022-11-20T02:18:33;5.70;99.90
21815;DHT22;11069;48.988;8.450;2022-11-20T02:21:07;5.70;99.90
21815;DHT22;11069;48.988;8.450;2022-11-20T02:26:24;5.80;99.90
21815;DHT22;11069;48.988;8.450;2022-11-20T02:28:50;5.80;99.90
21815;DHT22;11069;48.988;8.450;2022-11-20T02:31:16;5.90;99.90
21815;DHT22;11069;48.988;8.450;2022-11-20T02:33:41;6.00;99.90
21815;DHT22;11069;48.988;8.450;2022-11-20T02:36:09;6.10;99.90
21815;DHT22;11069;48.988;8.450;2022-11-20T02:38:36;6.20;99.90
21815;DHT22;11069;48.988;8.450;2022-11-20T02:41:02;6.20;99.90
21815;DHT22;11069;48.988;8.450;2022-11-20T02:43:28;6.40;99.90
21815;DHT22;11069;48.988;8.450;2022-11-20T02:45:53;6.50;99.90
21815;DHT22;11069;48.988;8.450;2022-11-20T02:48:19;6.50;99.90
21815;DHT22;11069;48.988;8.450;2022-11-20T02:50:44;6.50;99.90
21815;DHT22;11069;48.988;8.450;2022-11-20T02:53:10;6.60;99.90
21815;DHT22;11069;48.988;8.450;2022-11-20T02:55:36;6.60;99.90
21815;DHT22;11069;48.988;8.450;2022-11-20T02:58:01;6.60;99.90
21815;DHT22;11069;48.988;8.450;2022-11-20T03:00:27;6.60;99.90
21815;DHT22;11069;48.988;8.450;2022-11-20T03:02:53;6.60;99.90
21815;DHT22;11069;48.988;8.450;2022-11-20T03:05:18;6.60;99.90
21815;DHT22;11069;48.988;8.450;2022-11-20T03:07:44;6.60;99.90
21815;DHT22;11069;48.988;8.450;2022-11-20T03:10:09;6.70;99.90
21815;DHT22;11069;48.988;8.450;2022-11-20T03:12:35;6.70;99.90
21815;DHT22;11069;48.988;8.450;2022-11-20T03:15:01;6.70;99.90
21815;DHT22;11069;48.988;8.450;2022-11-20T03:17:26;6.70;99.90
21815;DHT22;11069;48.988;8.450;2022-11-20T03:19:52;6.70;99.90
21815;DHT22;11069;48.988;8.450;2022-11-20T03:22:17;6.70;99.90
21815;DHT22;11069;48.988;8.450;2022-11-20T03:24:43;6.80;99.90
21815;DHT22;11069;48.988;8.450;2022-11-20T03:27:08;6.70;99.90
21815;DHT22;11069;48.988;8.450;2022-11-20T03:29:35;6.80;99.90
21815;DHT22;11069;48.988;8.450;2022-11-20T03:32:00;6.80;99.90
21815;DHT22;11069;48.988;8.450;2022-11-20T03:34:26;6.80;99.90
21815;DHT22;11069;48.988;8.450;2022-11-20T03:36:52;6.80;99.90
21815;DHT22;11069;48.988;8.450;2022-11-20T03:39:17;6.80;99.90
21815;DHT22;11069;48.988;8.450;2022-11-20T03:41:43;6.80;99.90
21815;DHT22;11069;48.988;8.450;2022-11-20T03:44:10;6.80;99.90
21815;DHT22;11069;48.988;8.450;2022-11-20T03:46:36;6.80;99.90
21815;DHT22;11069;48.988;8.450;2022-11-20T03:49:03;6.80;99.90
21815;DHT22;11069;48.988;8.450;2022-11-20T03:51:31;6.90;99.90
21815;DHT22;11069;48.988;8.450;2022-11-20T03:53:59;6.90;99.90
21815;DHT22;11069;48.988;8.450;2022-11-20T03:56:28;6.90;99.90
21815;DHT22;11069;48.988;8.450;2022-11-20T03:58:54;6.90;99.90
21815;DHT22;11069;48.988;8.450;2022-11-20T04:01:25;7.00;99.90
21815;DHT22;11069;48.988;8.450;2022-11-20T04:03:53;7.00;99.90
21815;DHT22;11069;48.988;8.450;2022-11-20T04:06:24;6.90;99.90
21815;DHT22;11069;48.988;8.450;2022-11-20T04:08:50;7.00;99.90
21815;DHT22;11069;48.988;8.450;2022-11-20T04:11:18;6.90;99.90
21815;DHT22;11069;48.988;8.450;2022-11-20T04:13:50;6.90;99.90
21815;DHT22;11069;48.988;8.450;2022-11-20T04:16:16;7.00;99.90
21815;DHT22;11069;48.988;8.450;2022-11-20T04:18:42;7.00;99.90
21815;DHT22;11069;48.988;8.450;2022-11-20T04:21:08;7.00;99.90
21815;DHT22;11069;48.988;8.450;2022-11-20T04:23:34;6.90;99.90
21815;DHT22;11069;48.988;8.450;2022-11-20T04:26:09;7.00;99.90
21815;DHT22;11069;48.988;8.450;2022-11-20T04:28:36;7.00;99.90
21815;DHT22;11069;48.988;8.450;2022-11-20T04:31:09;7.00;99.90
21815;DHT22;11069;48.988;8.450;2022-11-20T04:33:36;7.00;99.90
21815;DHT22;11069;48.988;8.450;2022-11-20T04:36:04;7.00;99.90
21815;DHT22;11069;48.988;8.450;2022-11-20T04:38:30;6.90;99.90
21815;DHT22;11069;48.988;8.450;2022-11-20T04:40:57;7.00;99.90
21815;DHT22;11069;48.988;8.450;2022-11-20T04:43:23;6.90;99.90
21815;DHT22;11069;48.988;8.450;2022-11-20T04:45:54;7.00;99.90
21815;DHT22;11069;48.988;8.450;2022-11-20T04:48:20;7.00;99.90
21815;DHT22;11069;48.988;8.450;2022-11-20T04:50:45;7.00;99.90
21815;DHT22;11069;48.988;8.450;2022-11-20T04:53:11;7.00;99.90
21815;DHT22;11069;48.988;8.450;2022-11-20T04:55:37;6.90;99.90
21815;DHT22;11069;48.988;8.450;2022-11-20T04:58:02;7.00;99.90
21815;DHT22;11069;48.988;8.450;2022-11-20T05:00:28;7.00;99.90
21815;DHT22;11069;48.988;8.450;2022-11-20T05:02:53;7.00;99.90
21815;DHT22;11069;48.988;8.450;2022-11-20T05:05:19;7.00;99.90
21815;DHT22;11069;48.988;8.450;2022-11-20T05:07:44;7.10;99.90
21815;DHT22;11069;48.988;8.450;2022-11-20T05:10:10;7.10;99.90
21815;DHT22;11069;48.988;8.450;2022-11-20T05:12:35;7.10;99.90
21815;DHT22;11069;48.988;8.450;2022-11-20T05:15:01;7.00;99.90
21815;DHT22;11069;48.988;8.450;2022-11-20T05:17:26;7.00;99.90
21815;DHT22;11069;48.988;8.450;2022-11-20T05:19:52;7.00;99.90
21815;DHT22;11069;48.988;8.450;2022-11-20T05:22:18;7.10;99.90
21815;DHT22;11069;48.988;8.450;2022-11-20T05:24:43;7.10;99.90
21815;DHT22;11069;48.988;8.450;2022-11-20T05:27:09;7.10;99.90
21815;DHT22;11069;48.988;8.450;2022-11-20T05:29:34;7.00;99.90
21815;DHT22;11069;48.988;8.450;2022-11-20T05:32:00;7.00;99.90
21815;DHT22;11069;48.988;8.450;2022-11-20T05:34:25;7.00;99.90
21815;DHT22;11069;48.988;8.450;2022-11-20T05:36:51;7.00;99.90
21815;DHT22;11069;48.988;8.450;2022-11-20T05:39:16;7.10;99.90
21815;DHT22;11069;48.988;8.450;2022-11-20T05:41:42;7.10;99.90
21815;DHT22;11069;48.988;8.450;2022-11-20T05:44:10;7.10;99.90
21815;DHT22;11069;48.988;8.450;2022-11-20T05:46:36;7.10;99.90
21815;DHT22;11069;48.988;8.450;2022-11-20T05:49:01;7.10;99.90
21815;DHT22;11069;48.988;8.450;2022-11-20T05:51:27;7.10;99.90
21815;DHT22;11069;48.988;8.450;2022-11-20T05:53:53;7.10;99.90
21815;DHT22;11069;48.988;8.450;2022-11-20T05:56:20;7.20;99.90
21815;DHT22;11069;48.988;8.450;2022-11-20T05:58:46;7.20;99.90
21815;DHT22;11069;48.988;8.450;2022-11-20T06:01:18;7.10;99.90
21815;DHT22;11069;48.988;8.450;2022-11-20T06:03:45;7.20;99.90
21815;DHT22;11069;48.988;8.450;2022-11-20T06:06:17;7.10;99.90
21815;DHT22;11069;48.988;8.450;2022-11-20T06:08:43;7.10;99.90
21815;DHT22;11069;48.988;8.450;2022-11-20T06:11:10;7.20;99.90
21815;DHT22;11069;48.988;8.450;2022-11-20T06:13:36;7.20;99.90
21815;DHT22;11069;48.988;8.450;2022-11-20T06:16:02;7.20;99.90
21815;DHT22;11069;48.988;8.450;2022-11-20T06:18:29;7.20;99.90
21815;DHT22;11069;48.988;8.450;2022-11-20T06:23:32;7.20;99.90
21815;DHT22;11069;48.988;8.450;2022-11-20T06:26:05;7.20;99.90
21815;DHT22;11069;48.988;8.450;2022-11-20T06:28:31;7.10;99.90
21815;DHT22;11069;48.988;8.450;2022-11-20T06:30:58;7.10;99.90
21815;DHT22;11069;48.988;8.450;2022-11-20T06:33:24;7.20;99.90
21815;DHT22;11069;48.988;8.450;2022-11-20T06:35:50;7.20;99.90
21815;DHT22;11069;48.988;8.450;2022-11-20T06:38:15;7.20;99.90
21815;DHT22;11069;48.988;8.450;2022-11-20T06:40:41;7.20;99.90
21815;DHT22;11069;48.988;8.450;2022-11-20T06:43:08;7.20;99.90
21815;DHT22;11069;48.988;8.450;2022-11-20T06:45:34;7.20;99.90
21815;DHT22;11069;48.988;8.450;2022-11-20T06:48:00;7.10;99.90
21815;DHT22;11069;48.988;8.450;2022-11-20T06:50:25;7.20;99.90
21815;DHT22;11069;48.988;8.450;2022-11-20T06:52:51;7.30;99.90
21815;DHT22;11069;48.988;8.450;2022-11-20T06:55:16;7.30;99.90
21815;DHT22;11069;48.988;8.450;2022-11-20T06:57:42;7.30;99.90
21815;DHT22;11069;48.988;8.450;2022-11-20T07:00:08;7.30;99.90
21815;DHT22;11069;48.988;8.450;2022-11-20T07:02:33;7.30;99.90
21815;DHT22;11069;48.988;8.450;2022-11-20T07:04:59;7.30;99.90
21815;DHT22;11069;48.988;8.450;2022-11-20T07:07:24;7.40;99.90
21815;DHT22;11069;48.988;8.450;2022-11-20T07:09:50;7.40;99.90
21815;DHT22;11069;48.988;8.450;2022-11-20T07:12:16;7.40;99.90
21815;DHT22;11069;48.988;8.450;2022-11-20T07:14:41;7.40;99.90
21815;DHT22;11069;48.988;8.450;2022-11-20T07:17:07;7.40;99.90
21815;DHT22;11069;48.988;8.450;2022-11-20T07:19:32;7.40;99.90
21815;DHT22;11069;48.988;8.450;2022-11-20T07:21:58;7.40;99.90
21815;DHT22;11069;48.988;8.450;2022-11-20T07:24:23;7.40;99.90
21815;DHT22;11069;48.988;8.450;2022-11-20T07:26:49;7.30;99.90
21815;DHT22;11069;48.988;8.450;2022-11-20T07:29:15;7.30;99.90
21815;DHT22;11069;48.988;8.450;2022-11-20T07:31:42;7.30;99.90
21815;DHT22;11069;48.988;8.450;2022-11-20T07:34:07;7.20;99.90
21815;DHT22;11069;48.988;8.450;2022-11-20T07:36:33;7.20;99.90
21815;DHT22;11069;48.988;8.450;2022-11-20T07:38:58;7.20;99.90
21815;DHT22;11069;48.988;8.450;2022-11-20T07:41:24;7.20;99.90
21815;DHT22;11069;48.988;8.450;2022-11-20T07:43:50;7.20;99.90
21815;DHT22;11069;48.988;8.450;2022-11-20T07:46:15;7.20;99.90
21815;DHT22;11069;48.988;8.450;2022-11-20T07:48:41;7.20;99.90
21815;DHT22;11069;48.988;8.450;2022-11-20T07:51:06;7.20;99.90
21815;DHT22;11069;48.988;8.450;2022-11-20T07:53:32;7.30;99.90
21815;DHT22;11069;48.988;8.450;2022-11-20T07:56:02;7.30;99.90
21815;DHT22;11069;48.988;8.450;2022-11-20T07:58:31;7.30;99.90
21815;DHT22;11069;48.988;8.450;2022-11-20T08:01:02;7.30;99.90
21815;DHT22;11069;48.988;8.450;2022-11-20T08:03:28;7.30;99.90
21815;DHT22;11069;48.988;8.450;2022-11-20T08:05:53;7.40;99.90
21815;DHT22;11069;48.988;8.450;2022-11-20T08:08:19;7.30;99.90
21815;DHT22;11069;48.988;8.450;2022-11-20T08:10:45;7.30;99.90
21815;DHT22;11069;48.988;8.450;2022-11-20T08:13:11;7.30;99.90
21815;DHT22;11069;48.988;8.450;2022-11-20T08:15:55;7.30;99.90
21815;DHT22;11069;48.988;8.450;2022-11-20T08:18:20;7.30;99.90
21815;DHT22;11069;48.988;8.450;2022-11-20T08:20:46;7.30;99.90
21815;DHT22;11069;48.988;8.450;2022-11-20T08:23:11;7.30;99.90
21815;DHT22;11069;48.988;8.450;2022-11-20T08:25:38;7.30;99.90
21815;DHT22;11069;48.988;8.450;2022-11-20T08:28:06;7.40;99.90
21815;DHT22;11069;48.988;8.450;2022-11-20T08:30:32;7.40;99.90
21815;DHT22;11069;48.988;8.450;2022-11-20T08:33:06;7.40;99.90
21815;DHT22;11069;48.988;8.450;2022-11-20T08:35:37;7.40;99.90
21815;DHT22;11069;48.988;8.450;2022-11-20T08:38:04;7.50;99.90
21815;DHT22;11069;48.988;8.450;2022-11-20T08:40:31;7.40;99.90
21815;DHT22;11069;48.988;8.450;2022-11-20T08:42:56;7.50;99.90
21815;DHT22;11069;48.988;8.450;2022-11-20T08:45:22;7.50;99.90
21815;DHT22;11069;48.988;8.450;2022-11-20T08:47:48;7.50;99.90
21815;DHT22;11069;48.988;8.450;2022-11-20T08:50:14;7.50;99.90
21815;DHT22;11069;48.988;8.450;2022-11-20T08:52:40;7.60;99.90
21815;DHT22;11069;48.988;8.450;2022-11-20T08:55:07;7.60;99.90
21815;DHT22;11069;48.988;8.450;2022-11-20T08:57:34;7.60;99.90
21815;DHT22;11069;48.988;8.450;2022-11-20T09:00:00;7.60;99.90
21815;DHT22;11069;48.988;8.450;2022-11-20T09:02:26;7.70;99.90
21815;DHT22;11069;48.988;8.450;2022-11-20T09:04:52;7.70;99.90
21815;DHT22;11069;48.988;8.450;2022-11-20T09:07:19;7.70;99.90
21815;DHT22;11069;48.988;8.450;2022-11-20T09:09:44;7.70;99.90
21815;DHT22;11069;48.988;8.450;2022-11-20T09:12:10;7.70;99.90
21815;DHT22;11069;48.988;8.450;2022-11-20T09:14:36;7.60;99.90
21815;DHT22;11069;48.988;8.450;2022-11-20T09:17:01;7.60;99.90
21815;DHT22;11069;48.988;8.450;2022-11-20T09:19:27;7.70;99.90
21815;DHT22;11069;48.988;8.450;2022-11-20T09:21:53;7.60;99.90
21815;DHT22;11069;48.988;8.450;2022-11-20T09:24:19;7.60;99.90
21815;DHT22;11069;48.988;8.450;2022-11-20T09:26:46;7.50;99.90
21815;DHT22;11069;48.988;8.450;2022-11-20T09:29:11;7.50;99.90
21815;DHT22;11069;48.988;8.450;2022-11-20T09:31:37;7.60;99.90
21815;DHT22;11069;48.988;8.450;2022-11-20T09:34:02;7.60;99.90
21815;DHT22;11069;48.988;8.450;2022-11-20T09:36:28;7.60;99.90
21815;DHT22;11069;48.988;8.450;2022-11-20T09:38:54;7.60;99.90
21815;DHT22;11069;48.988;8.450;2022-11-20T09:41:51;7.60;99.90
21815;DHT22;11069;48.988;8.450;2022-11-20T09:55:31;7.40;99.90
21815;DHT22;11069;48.988;8.450;2022-11-20T09:57:57;7.40;99.90
21815;DHT22;11069;48.988;8.450;2022-11-20T10:00:25;7.30;99.90
21815;DHT22;11069;48.988;8.450;2022-11-20T10:02:55;7.50;99.90
21815;DHT22;11069;48.988;8.450;2022-11-20T10:05:31;7.50;99.90
21815;DHT22;11069;48.988;8.450;2022-11-20T10:08:20;7.60;99.90
21815;DHT22;11069;48.988;8.450;2022-11-20T10:10:50;7.60;99.90
21815;DHT22;11069;48.988;8.450;2022-11-20T10:22:30;7.50;99.90
21815;DHT22;11069;48.988;8.450;2022-11-20T10:25:03;7.60;99.90
21815;DHT22;11069;48.988;8.450;2022-11-20T10:27:55;7.70;99.90
21815;DHT22;11069;48.988;8.450;2022-11-20T10:30:24;7.90;99.90
21815;DHT22;11069;48.988;8.450;2022-11-20T10:33:05;8.10;99.90
21815;DHT22;11069;48.988;8.450;2022-11-20T10:35:35;8.40;99.90
21815;DHT22;11069;48.988;8.450;2022-11-20T10:38:13;8.60;99.90
21815;DHT22;11069;48.988;8.450;2022-11-20T10:40:51;8.70;99.90
21815;DHT22;11069;48.988;8.450;2022-11-20T10:43:33;8.80;99.90
21815;DHT22;11069;48.988;8.450;2022-11-20T10:46:00;8.50;99.90
21815;DHT22;11069;48.988;8.450;2022-11-20T10:48:28;8.30;99.90
21815;DHT22;11069;48.988;8.450;2022-11-20T10:53:54;8.20;99.90
21815;DHT22;11069;48.988;8.450;2022-11-20T10:56:50;8.20;99.90
21815;DHT22;11069;48.988;8.450;2022-11-20T11:01:51;8.30;99.90
21815;DHT22;11069;48.988;8.450;2022-11-20T11:04:35;8.40;99.90
21815;DHT22;11069;48.988;8.450;2022-11-20T11:07:27;8.40;99.90
21815;DHT22;11069;48.988;8.450;2022-11-20T11:09:55;8.80;99.90
21815;DHT22;11069;48.988;8.450;2022-11-20T11:12:27;9.30;99.90
21815;DHT22;11069;48.988;8.450;2022-11-20T11:14:55;9.50;99.90
21815;DHT22;11069;48.988;8.450;2022-11-20T11:17:27;9.60;99.90
21815;DHT22;11069;48.988;8.450;2022-11-20T11:20:01;9.40;99.90
21815;DHT22;11069;48.988;8.450;2022-11-20T11:22:34;9.50;99.90
21815;DHT22;11069;48.988;8.450;2022-11-20T11:25:09;9.50;99.90
21815;DHT22;11069;48.988;8.450;2022-11-20T11:27:47;9.50;99.90
21815;DHT22;11069;48.988;8.450;2022-11-20T11:30:19;9.30;99.90
21815;DHT22;11069;48.988;8.450;2022-11-20T11:32:46;9.20;99.90
21815;DHT22;11069;48.988;8.450;2022-11-20T11:37:45;8.90;99.90
21815;DHT22;11069;48.988;8.450;2022-11-20T11:40:13;9.20;99.90
21815;DHT22;11069;48.988;8.450;2022-11-20T11:42:54;9.70;99.90
21815;DHT22;11069;48.988;8.450;2022-11-20T11:45:21;10.30;99.90
21815;DHT22;11069;48.988;8.450;2022-11-20T11:47:47;10.10;99.90
21815;DHT22;11069;48.988;8.450;2022-11-20T11:50:23;10.00;99.90
21815;DHT22;11069;48.988;8.450;2022-11-20T12:04:00;11.40;99.90
21815;DHT22;11069;48.988;8.450;2022-11-20T12:06:28;11.30;99.90
21815;DHT22;11069;48.988;8.450;2022-11-20T12:09:01;11.10;99.90
21815;DHT22;11069;48.988;8.450;2022-11-20T12:16:38;11.60;99.90
21815;DHT22;11069;48.988;8.450;2022-11-20T12:19:10;11.20;99.90
21815;DHT22;11069;48.988;8.450;2022-11-20T12:30:15;10.20;99.90
21815;DHT22;11069;48.988;8.450;2022-11-20T12:53:32;11.80;99.90
21815;DHT22;11069;48.988;8.450;2022-11-20T12:58:53;11.80;99.90
21815;DHT22;11069;48.988;8.450;2022-11-20T13:06:46;11.50;99.90
21815;DHT22;11069;48.988;8.450;2022-11-20T13:09:15;11.90;99.90
21815;DHT22;11069;48.988;8.450;2022-11-20T13:11:55;12.20;99.90
21815;DHT22;11069;48.988;8.450;2022-11-20T13:19:56;12.30;99.90
21815;DHT22;11069;48.988;8.450;2022-11-20T13:22:46;12.40;99.90
21815;DHT22;11069;48.988;8.450;2022-11-20T13:25:42;12.90;99.90
21815;DHT22;11069;48.988;8.450;2022-11-20T13:30:47;12.30;99.90
21815;DHT22;11069;48.988;8.450;2022-11-20T13:33:32;11.60;99.90
21815;DHT22;11069;48.988;8.450;2022-11-20T13:38:27;11.10;99.90
21815;DHT22;11069;48.988;8.450;2022-11-20T13:40:59;11.00;99.90
21815;DHT22;11069;48.988;8.450;2022-11-20T13:43:44;10.90;99.90
21815;DHT22;11069;48.988;8.450;2022-11-20T13:46:11;10.80;99.90
21815;DHT22;11069;48.988;8.450;2022-11-20T13:48:42;10.50;99.90
21815;DHT22;11069;48.988;8.450;2022-11-20T13:51:41;10.50;99.90
21815;DHT22;11069;48.988;8.450;2022-11-20T13:57:11;10.60;99.90
21815;DHT22;11069;48.988;8.450;2022-11-20T14:00:09;10.80;99.90
21815;DHT22;11069;48.988;8.450;2022-11-20T14:02:36;10.70;99.90
21815;DHT22;11069;48.988;8.450;2022-11-20T14:05:02;10.20;99.90
21815;DHT22;11069;48.988;8.450;2022-11-20T14:07:39;10.10;99.90
21815;DHT22;11069;48.988;8.450;2022-11-20T14:10:05;10.10;99.90
21815;DHT22;11069;48.988;8.450;2022-11-20T14:12:33;10.20;99.90
21815;DHT22;11069;48.988;8.450;2022-11-20T14:14:59;10.30;99.90
21815;DHT22;11069;48.988;8.450;2022-11-20T14:19:54;10.20;99.90
21815;DHT22;11069;48.988;8.450;2022-11-20T14:22:24;9.90;99.90
21815;DHT22;11069;48.988;8.450;2022-11-20T14:27:42;9.80;99.90
21815;DHT22;11069;48.988;8.450;2022-11-20T14:30:20;9.70;99.90
21815;DHT22;11069;48.988;8.450;2022-11-20T14:32:47;9.80;99.90
21815;DHT22;11069;48.988;8.450;2022-11-20T14:35:28;9.70;99.90
21815;DHT22;11069;48.988;8.450;2022-11-20T14:37:54;9.60;99.90
21815;DHT22;11069;48.988;8.450;2022-11-20T14:40:29;9.50;99.90
21815;DHT22;11069;48.988;8.450;2022-11-20T14:42:56;9.40;99.90
21815;DHT22;11069;48.988;8.450;2022-11-20T14:45:23;9.30;99.90
21815;DHT22;11069;48.988;8.450;2022-11-20T14:47:49;9.20;99.90
21815;DHT22;11069;48.988;8.450;2022-11-20T14:50:23;9.10;99.90
21815;DHT22;11069;48.988;8.450;2022-11-20T14:52:59;9.10;99.90
21815;DHT22;11069;48.988;8.450;2022-11-20T14:55:36;9.00;99.90
21815;DHT22;11069;48.988;8.450;2022-11-20T14:58:24;8.90;99.90
21815;DHT22;11069;48.988;8.450;2022-11-20T15:01:00;8.90;99.90
21815;DHT22;11069;48.988;8.450;2022-11-20T15:03:40;8.80;99.90
21815;DHT22;11069;48.988;8.450;2022-11-20T15:06:07;8.70;99.90
21815;DHT22;11069;48.988;8.450;2022-11-20T15:08:35;8.60;99.90
21815;DHT22;11069;48.988;8.450;2022-11-20T15:11:01;8.70;99.90
21815;DHT22;11069;48.988;8.450;2022-11-20T15:13:37;8.60;99.90
21815;DHT22;11069;48.988;8.450;2022-11-20T15:16:09;8.50;99.90
21815;DHT22;11069;48.988;8.450;2022-11-20T15:18:40;8.40;99.90
21815;DHT22;11069;48.988;8.450;2022-11-20T15:21:17;8.40;99.90
21815;DHT22;11069;48.988;8.450;2022-11-20T15:23:43;8.30;99.90
21815;DHT22;11069;48.988;8.450;2022-11-20T15:26:11;8.30;99.90
21815;DHT22;11069;48.988;8.450;2022-11-20T15:28:39;8.30;99.90
21815;DHT22;11069;48.988;8.450;2022-11-20T15:31:05;8.40;99.90
21815;DHT22;11069;48.988;8.450;2022-11-20T15:33:32;8.40;99.90
21815;DHT22;11069;48.988;8.450;2022-11-20T15:35:58;8.30;99.90
21815;DHT22;11069;48.988;8.450;2022-11-20T15:38:24;8.30;99.90
21815;DHT22;11069;48.988;8.450;2022-11-20T15:40:49;8.30;99.90
21815;DHT22;11069;48.988;8.450;2022-11-20T15:43:15;8.30;99.90
21815;DHT22;11069;48.988;8.450;2022-11-20T15:45:46;8.30;99.90
21815;DHT22;11069;48.988;8.450;2022-11-20T15:48:21;8.30;99.90
21815;DHT22;11069;48.988;8.450;2022-11-20T15:50:56;8.30;99.90
21815;DHT22;11069;48.988;8.450;2022-11-20T15:53:26;8.30;99.90
21815;DHT22;11069;48.988;8.450;2022-11-20T15:55:51;8.30;99.90
21815;DHT22;11069;48.988;8.450;2022-11-20T15:58:17;8.30;99.90
21815;DHT22;11069;48.988;8.450;2022-11-20T16:00:43;8.30;99.90
21815;DHT22;11069;48.988;8.450;2022-11-20T16:03:11;8.40;99.90
21815;DHT22;11069;48.988;8.450;2022-11-20T16:05:37;8.40;99.90
21815;DHT22;11069;48.988;8.450;2022-11-20T16:08:02;8.40;99.90
21815;DHT22;11069;48.988;8.450;2022-11-20T16:10:28;8.50;99.90
21815;DHT22;11069;48.988;8.450;2022-11-20T16:12:54;8.40;99.90
21815;DHT22;11069;48.988;8.450;2022-11-20T16:15:38;8.50;99.90
21815;DHT22;11069;48.988;8.450;2022-11-20T16:18:18;8.40;99.90
21815;DHT22;11069;48.988;8.450;2022-11-20T16:20:46;8.40;99.90
21815;DHT22;11069;48.988;8.450;2022-11-20T16:23:12;8.30;99.90
21815;DHT22;11069;48.988;8.450;2022-11-20T16:25:38;8.30;99.90
21815;DHT22;11069;48.988;8.450;2022-11-20T16:28:04;8.30;99.90
21815;DHT22;11069;48.988;8.450;2022-11-20T16:30:31;8.20;99.90
21815;DHT22;11069;48.988;8.450;2022-11-20T16:32:58;8.30;99.90
21815;DHT22;11069;48.988;8.450;2022-11-20T16:35:26;8.20;99.90
21815;DHT22;11069;48.988;8.450;2022-11-20T16:37:52;8.20;99.90
21815;DHT22;11069;48.988;8.450;2022-11-20T16:40:18;8.20;99.90
21815;DHT22;11069;48.988;8.450;2022-11-20T16:42:43;8.20;99.90
21815;DHT22;11069;48.988;8.450;2022-11-20T16:45:09;8.20;99.90
21815;DHT22;11069;48.988;8.450;2022-11-20T16:47:35;8.10;99.90
21815;DHT22;11069;48.988;8.450;2022-11-20T16:50:02;8.10;99.90
21815;DHT22;11069;48.988;8.450;2022-11-20T16:52:29;8.10;99.90
21815;DHT22;11069;48.988;8.450;2022-11-20T16:54:55;8.00;99.90
21815;DHT22;11069;48.988;8.450;2022-11-20T16:57:20;7.90;99.90
21815;DHT22;11069;48.988;8.450;2022-11-20T16:59:47;7.90;99.90
21815;DHT22;11069;48.988;8.450;2022-11-20T17:02:12;7.90;99.90
21815;DHT22;11069;48.988;8.450;2022-11-20T17:04:38;7.90;99.90
21815;DHT22;11069;48.988;8.450;2022-11-20T17:07:04;7.90;99.90
21815;DHT22;11069;48.988;8.450;2022-11-20T17:09:29;8.00;99.90
21815;DHT22;11069;48.988;8.450;2022-11-20T17:11:55;8.00;99.90
21815;DHT22;11069;48.988;8.450;2022-11-20T17:14:20;8.00;99.90
21815;DHT22;11069;48.988;8.450;2022-11-20T17:16:46;8.10;99.90
21815;DHT22;11069;48.988;8.450;2022-11-20T17:19:13;8.10;99.90
21815;DHT22;11069;48.988;8.450;2022-11-20T17:21:39;8.10;99.90
21815;DHT22;11069;48.988;8.450;2022-11-20T17:24:10;8.00;99.90
21815;DHT22;11069;48.988;8.450;2022-11-20T17:26:38;8.10;99.90
21815;DHT22;11069;48.988;8.450;2022-11-20T17:29:26;8.10;99.90
21815;DHT22;11069;48.988;8.450;2022-11-20T17:31:52;7.90;99.90
21815;DHT22;11069;48.988;8.450;2022-11-20T17:34:18;7.70;99.90
21815;DHT22;11069;48.988;8.450;2022-11-20T17:36:44;7.60;99.90
21815;DHT22;11069;48.988;8.450;2022-11-20T17:39:11;7.50;99.90
21815;DHT22;11069;48.988;8.450;2022-11-20T17:41:37;7.50;99.90
21815;DHT22;11069;48.988;8.450;2022-11-20T17:44:03;7.50;99.90
21815;DHT22;11069;48.988;8.450;2022-11-20T17:46:30;7.50;99.90